Time,TemperatureF,DewpointF,PressureIn,WindDirection,WindDirectionDegrees,WindSpeedMPH,WindSpeedGustMPH,Humidity,HourlyPrecipIn,Conditions,Clouds,dailyrainin,SoftwareType,DateUTC
2013-03-22 00:00:00,20.9,14.5,30.04,NW,313,0.0,0.0,76,0.00,,CLR,0.00,VWS V14.01,2013-03-22 04:00:00,
2013-03-22 00:01:00,20.9,14.5,30.04,NW,313,1.2,2.4,76,0.00,,CLR,0.00,VWS V14.01,2013-03-22 04:01:00,
2013-03-22 00:06:00,20.7,14.6,30.04,NW,313,0.0,0.0,77,0.00,,CLR,0.00,VWS V14.01,2013-03-22 04:06:00,
2013-03-22 00:11:00,20.7,14.6,30.04,NW,313,0.0,0.0,77,0.00,,CLR,0.00,VWS V14.01,2013-03-22 04:11:00,
2013-03-22 00:16:00,20.7,14.6,30.04,NW,313,0.0,0.0,77,0.00,,CLR,0.00,VWS V14.01,2013-03-22 04:16:00,
2013-03-22 00:21:00,20.7,14.6,30.04,NW,313,0.0,0.0,77,0.00,,CLR,0.00,VWS V14.01,2013-03-22 04:21:00,
2013-03-22 00:26:00,20.7,14.6,30.04,NW,313,0.0,0.0,77,0.00,,CLR,0.00,VWS V14.01,2013-03-22 04:26:00,
2013-03-22 00:31:00,20.6,14.5,30.04,NW,313,0.0,0.0,77,0.00,,CLR,0.00,VWS V14.01,2013-03-22 04:31:00,
2013-03-22 00:37:00,20.4,14.3,30.04,NW,313,0.0,0.0,77,0.00,,CLR,0.00,VWS V14.01,2013-03-22 04:37:00,
2013-03-22 00:42:00,20.4,14.6,30.04,NW,313,0.0,0.0,78,0.00,,CLR,0.00,VWS V14.01,2013-03-22 04:42:00,
2013-03-22 00:47:00,20.3,14.5,30.05,NW,313,0.0,0.0,78,0.00,,CLR,0.00,VWS V14.01,2013-03-22 04:47:00,
2013-03-22 00:52:00,20.3,14.5,30.05,NW,313,0.0,0.0,78,0.00,,CLR,0.00,VWS V14.01,2013-03-22 04:52:00,
2013-03-22 00:57:00,20.3,14.5,30.05,NW,313,0.0,0.0,78,0.00,,CLR,0.00,VWS V14.01,2013-03-22 04:57:00,
2013-03-22 01:02:00,20.3,14.5,30.05,NW,313,0.0,0.0,78,0.00,,CLR,0.00,VWS V14.01,2013-03-22 05:02:00,
2013-03-22 01:07:00,20.3,14.8,30.05,NW,313,0.0,0.0,79,0.00,,CLR,0.00,VWS V14.01,2013-03-22 05:07:00,
2013-03-22 01:12:00,20.4,14.9,30.05,NW,313,1.2,1.2,79,0.00,,CLR,0.00,VWS V14.01,2013-03-22 05:12:00,
2013-03-22 01:17:00,20.4,14.9,30.05,NW,313,0.0,0.0,79,0.00,,CLR,0.00,VWS V14.01,2013-03-22 05:17:00,
2013-03-22 01:22:00,20.4,15.2,30.05,NW,313,0.0,0.0,80,0.00,,CLR,0.00,VWS V14.01,2013-03-22 05:22:00,
2013-03-22 01:27:00,20.4,15.2,30.05,NW,313,0.0,0.0,80,0.00,,CLR,0.00,VWS V14.01,2013-03-22 05:27:00,
2013-03-22 01:32:00,20.4,15.2,30.05,NW,313,0.0,0.0,80,0.00,,CLR,0.00,VWS V14.01,2013-03-22 05:32:00,
2013-03-22 01:38:00,20.4,15.2,30.04,SW,220,4.7,4.7,80,0.00,,CLR,0.00,VWS V14.01,2013-03-22 05:38:00,
2013-03-22 01:43:00,20.4,15.2,30.04,SW,220,0.0,0.0,80,0.00,,FEW036,0.00,VWS V14.01,2013-03-22 05:43:00,
2013-03-22 01:48:00,20.4,15.2,30.04,SW,220,0.0,0.0,80,0.00,,FEW036,0.00,VWS V14.01,2013-03-22 05:48:00,
2013-03-22 01:53:00,20.4,15.2,30.04,SW,220,0.0,0.0,80,0.00,,FEW036,0.00,VWS V14.01,2013-03-22 05:53:00,
2013-03-22 01:58:00,20.4,15.2,30.05,SW,220,0.0,0.0,80,0.00,,FEW036,0.00,VWS V14.01,2013-03-22 05:58:00,
2013-03-22 02:03:00,20.4,15.4,30.04,SW,220,0.0,0.0,81,0.00,,FEW036,0.00,VWS V14.01,2013-03-22 06:03:00,
2013-03-22 02:08:00,20.3,15.4,30.04,SW,220,0.0,0.0,81,0.00,,FEW036,0.00,VWS V14.01,2013-03-22 06:08:00,
2013-03-22 02:13:00,20.3,15.4,30.05,SW,220,0.0,0.0,81,0.00,,FEW036,0.00,VWS V14.01,2013-03-22 06:13:00,
2013-03-22 02:18:00,20.3,15.4,30.04,SW,220,0.0,0.0,81,0.00,,FEW036,0.00,VWS V14.01,2013-03-22 06:18:00,
2013-03-22 02:23:00,20.1,15.2,30.04,SW,220,0.0,0.0,81,0.00,,FEW036,0.00,VWS V14.01,2013-03-22 06:23:00,
2013-03-22 02:28:00,20.1,15.2,30.04,SW,220,0.0,0.0,81,0.00,,FEW036,0.00,VWS V14.01,2013-03-22 06:28:00,
2013-03-22 02:33:00,20.0,15.1,30.04,SW,220,0.0,0.0,81,0.00,,FEW036,0.00,VWS V14.01,2013-03-22 06:33:00,
2013-03-22 02:38:00,20.0,15.1,30.04,SW,220,0.0,0.0,81,0.00,,FEW036,0.00,VWS V14.01,2013-03-22 06:38:00,
2013-03-22 02:43:00,19.8,14.9,30.04,SW,220,0.0,0.0,81,0.00,,FEW036,0.00,VWS V14.01,2013-03-22 06:43:00,
2013-03-22 02:48:00,19.6,14.7,30.04,SW,220,0.0,0.0,81,0.00,,FEW036,0.00,VWS V14.01,2013-03-22 06:48:00,
2013-03-22 02:53:00,19.6,14.7,30.04,SW,220,0.0,0.0,81,0.00,,FEW036,0.00,VWS V14.01,2013-03-22 06:53:00,
2013-03-22 02:58:00,19.5,14.6,30.04,SW,220,0.0,0.0,81,0.00,,FEW036,0.00,VWS V14.01,2013-03-22 06:58:00,
2013-03-22 03:03:00,19.3,14.4,30.04,SW,220,0.0,0.0,81,0.00,,FEW036,0.00,VWS V14.01,2013-03-22 07:03:00,
2013-03-22 03:08:00,19.2,14.3,30.04,SW,220,0.0,0.0,81,0.00,,FEW036,0.00,VWS V14.01,2013-03-22 07:08:00,
2013-03-22 03:13:00,19.0,14.1,30.04,SW,220,0.0,0.0,81,0.00,,FEW036,0.00,VWS V14.01,2013-03-22 07:13:00,
2013-03-22 03:18:00,18.9,14.0,30.04,SW,220,0.0,0.0,81,0.00,,FEW036,0.00,VWS V14.01,2013-03-22 07:18:00,
2013-03-22 03:23:00,18.9,14.0,30.04,SW,220,1.2,1.2,81,0.00,,FEW036,0.00,VWS V14.01,2013-03-22 07:23:00,
2013-03-22 03:28:00,18.7,13.8,30.04,SW,220,0.0,0.0,81,0.00,,FEW036,0.00,VWS V14.01,2013-03-22 07:28:00,
2013-03-22 03:33:00,18.5,13.6,30.04,SW,221,0.0,0.0,81,0.00,,FEW036,0.00,VWS V14.01,2013-03-22 07:33:00,
2013-03-22 03:38:00,18.4,13.5,30.04,SW,220,0.0,0.0,81,0.00,,FEW036,0.00,VWS V14.01,2013-03-22 07:38:00,
2013-03-22 03:43:00,18.2,13.3,30.04,SW,220,0.0,0.0,81,0.00,,CLR,0.00,VWS V14.01,2013-03-22 07:43:00,
2013-03-22 03:48:00,18.2,13.3,30.04,SW,220,0.0,0.0,81,0.00,,CLR,0.00,VWS V14.01,2013-03-22 07:48:00,
2013-03-22 03:53:00,18.1,13.2,30.04,SW,220,0.0,1.2,81,0.00,,CLR,0.00,VWS V14.01,2013-03-22 07:53:00,
2013-03-22 03:58:00,17.9,13.0,30.05,SW,220,0.0,0.0,81,0.00,,CLR,0.00,VWS V14.01,2013-03-22 07:58:00,
2013-03-22 04:03:00,17.8,12.9,30.04,SW,220,0.0,0.0,81,0.00,,CLR,0.00,VWS V14.01,2013-03-22 08:03:00,
2013-03-22 04:08:00,17.6,12.7,30.04,SW,220,0.0,0.0,81,0.00,,CLR,0.00,VWS V14.01,2013-03-22 08:08:00,
2013-03-22 04:13:00,17.6,12.7,30.04,SW,220,0.0,0.0,81,0.00,,CLR,0.00,VWS V14.01,2013-03-22 08:13:00,
2013-03-22 04:18:00,17.4,12.5,30.04,SW,220,0.0,0.0,81,0.00,,CLR,0.00,VWS V14.01,2013-03-22 08:18:00,
2013-03-22 04:23:00,17.3,12.4,30.04,SW,220,0.0,0.0,81,0.00,,CLR,0.00,VWS V14.01,2013-03-22 08:23:00,
2013-03-22 04:28:00,17.1,12.2,30.04,SW,220,0.0,0.0,81,0.00,,CLR,0.00,VWS V14.01,2013-03-22 08:28:00,
2013-03-22 04:33:00,17.1,12.2,30.04,SW,220,0.0,0.0,81,0.00,,CLR,0.00,VWS V14.01,2013-03-22 08:33:00,
2013-03-22 04:38:00,17.0,12.1,30.04,SW,220,0.0,0.0,81,0.00,,CLR,0.00,VWS V14.01,2013-03-22 08:38:00,
2013-03-22 04:43:00,17.0,12.1,30.04,SW,220,0.0,0.0,81,0.00,,CLR,0.00,VWS V14.01,2013-03-22 08:43:00,
2013-03-22 04:48:00,16.8,11.9,30.04,SW,220,0.0,0.0,81,0.00,,CLR,0.00,VWS V14.01,2013-03-22 08:48:00,
2013-03-22 04:54:00,16.8,12.2,30.04,SW,220,0.0,0.0,82,0.00,,CLR,0.00,VWS V14.01,2013-03-22 08:54:00,
2013-03-22 04:59:00,16.6,12.0,30.04,SW,220,0.0,1.2,82,0.00,,CLR,0.00,VWS V14.01,2013-03-22 08:59:00,
2013-03-22 05:04:00,16.6,12.0,30.04,SW,220,1.2,2.4,82,0.00,,CLR,0.00,VWS V14.01,2013-03-22 09:04:00,
2013-03-22 05:09:00,16.6,12.0,30.04,SW,220,0.0,0.0,82,0.00,,CLR,0.00,VWS V14.01,2013-03-22 09:09:00,
2013-03-22 05:14:00,16.8,12.2,30.04,SW,220,0.0,0.0,82,0.00,,CLR,0.00,VWS V14.01,2013-03-22 09:14:00,
2013-03-22 05:19:00,16.8,12.5,30.04,SW,220,0.0,0.0,83,0.00,,CLR,0.00,VWS V14.01,2013-03-22 09:19:00,
2013-03-22 05:27:00,16.6,12.0,30.04,North,0,0.0,0.0,82,0.00,,,0.00,VWS V14.01,2013-03-22 09:27:00,
2013-03-22 05:32:00,16.6,12.3,30.04,SW,220,0.0,0.0,83,0.00,,,0.00,VWS V14.01,2013-03-22 09:32:00,
2013-03-22 05:37:00,16.5,12.2,30.04,SW,220,0.0,0.0,83,0.00,,,0.00,VWS V14.01,2013-03-22 09:37:00,
2013-03-22 05:42:00,16.3,12.0,30.04,SW,220,0.0,0.0,83,0.00,,CLR,0.00,VWS V14.01,2013-03-22 09:42:00,
2013-03-22 05:47:00,16.3,12.0,30.04,SW,220,0.0,0.0,83,0.00,,CLR,0.00,VWS V14.01,2013-03-22 09:47:00,
2013-03-22 05:52:00,16.2,11.9,30.04,SW,220,0.0,0.0,83,0.00,,CLR,0.00,VWS V14.01,2013-03-22 09:52:00,
2013-03-22 05:57:00,16.0,11.7,30.05,SW,220,0.0,0.0,83,0.00,,CLR,0.00,VWS V14.01,2013-03-22 09:57:00,
2013-03-22 06:02:00,16.0,11.7,30.05,SW,220,0.0,0.0,83,0.00,,CLR,0.00,VWS V14.01,2013-03-22 10:02:00,
2013-03-22 06:07:00,16.0,11.7,30.05,SW,220,0.0,0.0,83,0.00,,CLR,0.00,VWS V14.01,2013-03-22 10:07:00,
2013-03-22 06:12:00,15.8,11.5,30.05,SW,220,0.0,1.2,83,0.00,,CLR,0.00,VWS V14.01,2013-03-22 10:12:00,
2013-03-22 06:17:00,15.8,11.5,30.05,SW,220,2.4,2.4,83,0.00,,CLR,0.00,VWS V14.01,2013-03-22 10:17:00,
2013-03-22 06:22:00,15.8,11.5,30.05,SW,220,0.0,0.0,83,0.00,,CLR,0.00,VWS V14.01,2013-03-22 10:22:00,
2013-03-22 06:27:00,15.7,11.4,30.05,SW,220,0.0,0.0,83,0.00,,CLR,0.00,VWS V14.01,2013-03-22 10:27:00,
2013-03-22 06:32:00,15.7,11.4,30.06,SW,220,0.0,0.0,83,0.00,,CLR,0.00,VWS V14.01,2013-03-22 10:32:00,
2013-03-22 06:37:00,15.7,11.4,30.06,SW,220,0.0,2.4,83,0.00,,CLR,0.00,VWS V14.01,2013-03-22 10:37:00,
2013-03-22 06:42:00,15.7,11.4,30.06,SW,220,0.0,0.0,83,0.00,,CLR,0.00,VWS V14.01,2013-03-22 10:42:00,
2013-03-22 06:48:00,15.7,11.4,30.06,SW,220,0.0,0.0,83,0.00,,CLR,0.00,VWS V14.01,2013-03-22 10:48:00,
2013-03-22 06:53:00,15.7,11.4,30.06,SW,220,1.2,1.2,83,0.00,,CLR,0.00,VWS V14.01,2013-03-22 10:53:00,
2013-03-22 06:58:00,15.7,11.4,30.06,SW,220,0.0,0.0,83,0.00,,CLR,0.00,VWS V14.01,2013-03-22 10:58:00,
2013-03-22 07:03:00,15.7,11.4,30.06,SW,220,0.0,0.0,83,0.00,,CLR,0.00,VWS V14.01,2013-03-22 11:03:00,
2013-03-22 07:08:00,15.5,11.2,30.06,SW,220,0.0,0.0,83,0.00,,CLR,0.00,VWS V14.01,2013-03-22 11:08:00,
2013-03-22 07:13:00,15.5,11.2,30.06,SW,220,0.0,0.0,83,0.00,,CLR,0.00,VWS V14.01,2013-03-22 11:13:00,
2013-03-22 07:18:00,15.5,11.2,30.06,SW,220,0.0,0.0,83,0.00,,CLR,0.00,VWS V14.01,2013-03-22 11:18:00,
2013-03-22 07:23:00,15.5,11.2,30.06,SW,220,0.0,0.0,83,0.00,,CLR,0.00,VWS V14.01,2013-03-22 11:23:00,
2013-03-22 07:28:00,15.5,11.2,30.06,SW,220,0.0,0.0,83,0.00,,CLR,0.00,VWS V14.01,2013-03-22 11:28:00,
2013-03-22 07:33:00,15.5,11.2,30.06,SW,220,0.0,1.2,83,0.00,,CLR,0.00,VWS V14.01,2013-03-22 11:33:00,
2013-03-22 07:38:00,15.5,11.5,30.06,SW,220,0.0,0.0,84,0.00,,CLR,0.00,VWS V14.01,2013-03-22 11:38:00,
2013-03-22 07:43:00,15.5,11.5,30.06,SW,220,0.0,0.0,84,0.00,,CLR,0.00,VWS V14.01,2013-03-22 11:43:00,
2013-03-22 07:48:00,15.5,11.5,30.05,SW,220,0.0,0.0,84,0.00,,CLR,0.00,VWS V14.01,2013-03-22 11:48:00,
2013-03-22 07:53:00,15.5,11.5,30.05,SW,220,0.0,0.0,84,0.00,,CLR,0.00,VWS V14.01,2013-03-22 11:53:00,
2013-03-22 07:58:00,15.5,11.5,30.05,SW,220,0.0,0.0,84,0.00,,CLR,0.00,VWS V14.01,2013-03-22 11:58:00,
2013-03-22 08:03:00,15.7,11.7,30.06,South,170,0.0,0.0,84,0.00,,CLR,0.00,VWS V14.01,2013-03-22 12:03:00,
2013-03-22 08:08:00,15.7,11.7,30.06,NW,312,0.0,0.0,84,0.00,,CLR,0.00,VWS V14.01,2013-03-22 12:08:00,
2013-03-22 08:13:00,15.8,11.8,30.06,NW,312,0.0,0.0,84,0.00,,CLR,0.00,VWS V14.01,2013-03-22 12:13:00,
2013-03-22 08:18:00,16.0,12.0,30.06,NW,312,0.0,0.0,84,0.00,,CLR,0.00,VWS V14.01,2013-03-22 12:18:00,
2013-03-22 08:23:00,16.3,12.6,30.06,NW,312,0.0,0.0,85,0.00,,CLR,0.00,VWS V14.01,2013-03-22 12:23:00,
2013-03-22 08:28:00,16.6,12.8,30.06,NW,312,0.0,0.0,85,0.00,,CLR,0.00,VWS V14.01,2013-03-22 12:28:00,
2013-03-22 08:33:00,17.1,13.3,30.06,NW,312,0.0,0.0,85,0.00,,CLR,0.00,VWS V14.01,2013-03-22 12:33:00,
2013-03-22 08:39:00,17.6,13.8,30.06,NW,312,0.0,0.0,85,0.00,,CLR,0.00,VWS V14.01,2013-03-22 12:39:00,
2013-03-22 08:44:00,18.1,14.3,30.06,NW,312,0.0,0.0,85,0.00,,CLR,0.00,VWS V14.01,2013-03-22 12:44:00,
2013-03-22 08:49:00,18.7,15.2,30.06,NW,312,1.2,1.2,86,0.00,,CLR,0.00,VWS V14.01,2013-03-22 12:49:00,
2013-03-22 08:54:00,19.3,15.8,30.06,NW,312,1.2,2.4,86,0.00,,CLR,0.00,VWS V14.01,2013-03-22 12:54:00,
2013-03-22 08:59:00,20.3,17.0,30.06,NW,312,0.0,1.2,87,0.00,,CLR,0.00,VWS V14.01,2013-03-22 12:59:00,
2013-03-22 09:04:00,21.2,18.2,30.06,NW,312,1.2,3.5,88,0.00,,CLR,0.00,VWS V14.01,2013-03-22 13:04:00,
2013-03-22 09:09:00,22.2,19.2,30.05,NW,312,0.0,1.2,88,0.00,,CLR,0.00,VWS V14.01,2013-03-22 13:09:00,
2013-03-22 09:14:00,23.0,20.0,30.05,NW,312,1.2,1.2,88,0.00,,CLR,0.00,VWS V14.01,2013-03-22 13:14:00,
2013-03-22 09:19:00,23.7,20.6,30.05,West,271,2.4,3.5,88,0.00,,CLR,0.00,VWS V14.01,2013-03-22 13:19:00,
2013-03-22 09:24:00,24.5,21.4,30.05,West,267,4.7,4.7,88,0.00,,CLR,0.00,VWS V14.01,2013-03-22 13:24:00,
2013-03-22 09:29:00,25.2,22.1,30.05,WNW,295,7.1,7.1,88,0.00,,CLR,0.00,VWS V14.01,2013-03-22 13:29:00,
2013-03-22 09:34:00,25.9,22.8,30.05,WNW,283,4.7,5.9,88,0.00,,CLR,0.00,VWS V14.01,2013-03-22 13:34:00,
2013-03-22 09:39:00,26.5,23.1,30.06,West,281,8.3,10.6,87,0.00,,CLR,0.00,VWS V14.01,2013-03-22 13:39:00,
2013-03-22 09:44:00,27.1,23.1,30.06,West,277,5.9,5.9,85,0.00,,CLR,0.00,VWS V14.01,2013-03-22 13:44:00,
2013-03-22 09:49:00,27.6,23.4,30.06,West,275,7.1,7.1,84,0.00,,CLR,0.00,VWS V14.01,2013-03-22 13:49:00,
2013-03-22 09:54:00,28.0,23.2,30.06,WNW,296,10.6,11.8,82,0.00,,CLR,0.00,VWS V14.01,2013-03-22 13:54:00,
2013-03-22 09:59:00,28.5,22.8,30.06,West,273,5.9,9.4,79,0.00,,CLR,0.00,VWS V14.01,2013-03-22 13:59:00,
2013-03-22 10:04:00,28.8,22.4,30.05,WNW,284,5.9,7.1,77,0.00,,CLR,0.00,VWS V14.01,2013-03-22 14:04:00,
2013-03-22 10:09:00,29.1,22.1,30.05,NW,305,5.9,8.3,75,0.00,,CLR,0.00,VWS V14.01,2013-03-22 14:09:00,
2013-03-22 10:14:00,29.5,22.2,30.05,WNW,300,4.7,8.3,74,0.00,,CLR,0.00,VWS V14.01,2013-03-22 14:14:00,
2013-03-22 10:19:00,29.9,21.9,30.05,WNW,296,4.7,8.3,72,0.00,,CLR,0.00,VWS V14.01,2013-03-22 14:19:00,
2013-03-22 10:24:00,30.2,20.5,30.06,West,276,7.1,9.4,67,0.00,,CLR,0.00,VWS V14.01,2013-03-22 14:24:00,
2013-03-22 10:29:00,30.5,20.8,30.05,WNW,284,5.9,9.4,67,0.00,,CLR,0.00,VWS V14.01,2013-03-22 14:29:00,
2013-03-22 10:34:00,30.4,19.6,30.05,WNW,290,5.9,7.1,64,0.00,,CLR,0.00,VWS V14.01,2013-03-22 14:34:00,
2013-03-22 10:39:00,30.5,20.0,30.05,NW,321,7.1,8.3,65,0.00,,CLR,0.00,VWS V14.01,2013-03-22 14:39:00,
2013-03-22 10:44:00,31.4,20.9,30.05,WNW,302,4.7,7.1,65,0.00,,CLR,0.00,VWS V14.01,2013-03-22 14:44:00,
2013-03-22 10:49:00,31.3,19.7,30.05,WNW,300,7.1,7.1,62,0.00,,CLR,0.00,VWS V14.01,2013-03-22 14:49:00,
2013-03-22 10:54:00,31.7,20.4,30.05,WNW,288,7.1,9.4,63,0.00,,CLR,0.00,VWS V14.01,2013-03-22 14:54:00,
2013-03-22 10:59:00,31.7,19.6,30.05,West,281,2.4,8.3,61,0.00,,CLR,0.00,VWS V14.01,2013-03-22 14:59:00,
2013-03-22 11:05:00,32.0,19.5,30.05,NNW,344,8.3,8.3,60,0.00,,CLR,0.00,VWS V14.01,2013-03-22 15:05:00,
2013-03-22 11:09:00,32.3,19.8,30.05,WNW,302,5.9,5.9,60,0.00,,CLR,0.00,VWS V14.01,2013-03-22 15:09:00,
2013-03-22 11:15:00,32.9,20.4,30.05,WNW,294,9.4,11.8,60,0.00,,CLR,0.00,VWS V14.01,2013-03-22 15:15:00,
2013-03-22 11:20:00,33.0,19.7,30.05,WSW,255,5.9,7.1,58,0.00,,CLR,0.00,VWS V14.01,2013-03-22 15:20:00,
2013-03-22 11:25:00,33.3,20.0,30.06,NW,311,5.9,9.4,58,0.00,,CLR,0.00,VWS V14.01,2013-03-22 15:25:00,
2013-03-22 11:30:00,33.2,19.0,30.06,WNW,282,9.4,10.6,56,0.00,,CLR,0.00,VWS V14.01,2013-03-22 15:30:00,
2013-03-22 11:35:00,33.0,19.7,30.06,WNW,292,8.3,8.3,58,0.00,,CLR,0.00,VWS V14.01,2013-03-22 15:35:00,
2013-03-22 11:40:00,33.5,19.7,30.06,West,278,2.4,7.1,57,0.00,,CLR,0.00,VWS V14.01,2013-03-22 15:40:00,
2013-03-22 11:45:00,33.9,20.5,30.06,NW,312,1.2,3.5,58,0.00,,CLR,0.00,VWS V14.01,2013-03-22 15:45:00,
2013-03-22 11:50:00,33.9,20.5,30.06,WNW,298,7.1,10.6,58,0.00,,CLR,0.00,VWS V14.01,2013-03-22 15:50:00,
2013-03-22 11:55:00,33.8,20.4,30.06,NW,319,7.1,7.1,58,0.00,,CLR,0.00,VWS V14.01,2013-03-22 15:55:00,
2013-03-22 12:00:00,34.4,19.3,30.05,WSW,250,4.7,7.1,54,0.00,,CLR,0.00,VWS V14.01,2013-03-22 16:00:00,
2013-03-22 12:05:00,34.7,20.9,30.06,WNW,296,2.4,8.3,57,0.00,,CLR,0.00,VWS V14.01,2013-03-22 16:05:00,
2013-03-22 12:10:00,34.8,20.1,30.06,SW,232,2.4,8.3,55,0.00,,CLR,0.00,VWS V14.01,2013-03-22 16:10:00,
2013-03-22 12:15:00,34.8,20.1,30.06,West,269,5.9,13.0,55,0.00,,CLR,0.00,VWS V14.01,2013-03-22 16:15:00,
2013-03-22 12:20:00,34.8,20.5,30.06,NW,320,4.7,7.1,56,0.00,,CLR,0.00,VWS V14.01,2013-03-22 16:20:00,
2013-03-22 12:25:00,35.6,21.3,30.05,NW,325,7.1,9.4,56,0.00,,CLR,0.00,VWS V14.01,2013-03-22 16:25:00,
2013-03-22 12:30:00,35.6,20.8,30.06,NW,313,4.7,7.1,55,0.00,,CLR,0.00,VWS V14.01,2013-03-22 16:30:00,
2013-03-22 12:35:00,35.9,21.1,30.06,NW,307,10.6,11.8,55,0.00,,CLR,0.00,VWS V14.01,2013-03-22 16:35:00,
2013-03-22 12:40:00,36.0,19.9,30.06,SW,229,8.3,8.3,52,0.00,,CLR,0.00,VWS V14.01,2013-03-22 16:40:00,
2013-03-22 12:45:00,35.7,19.6,30.06,West,281,4.7,4.7,52,0.00,,CLR,0.00,VWS V14.01,2013-03-22 16:45:00,
2013-03-22 12:50:00,36.3,19.7,30.05,WNW,296,10.6,13.0,50,0.00,,CLR,0.00,VWS V14.01,2013-03-22 16:50:00,
2013-03-22 12:55:00,36.9,20.7,30.05,WNW,284,4.7,8.3,52,0.00,,CLR,0.00,VWS V14.01,2013-03-22 16:55:00,
2013-03-22 13:00:00,37.3,21.5,30.05,WNW,300,7.1,11.8,53,0.00,,CLR,0.00,VWS V14.01,2013-03-22 17:00:00,
2013-03-22 13:05:00,37.1,20.0,30.05,NW,319,9.4,13.0,49,0.00,,CLR,0.00,VWS V14.01,2013-03-22 17:05:00,
2013-03-22 13:10:00,37.1,20.9,30.05,West,275,5.9,13.0,52,0.00,,CLR,0.00,VWS V14.01,2013-03-22 17:10:00,
2013-03-22 13:15:00,36.9,19.3,30.05,WSW,246,2.4,8.3,48,0.00,,CLR,0.00,VWS V14.01,2013-03-22 17:15:00,
2013-03-22 13:20:00,36.9,19.3,30.05,SW,217,9.4,10.6,48,0.00,,CLR,0.00,VWS V14.01,2013-03-22 17:20:00,
2013-03-22 13:25:00,37.1,19.0,30.05,WNW,300,8.3,13.0,47,0.00,,CLR,0.00,VWS V14.01,2013-03-22 17:25:00,
2013-03-22 13:30:00,37.0,17.9,30.05,West,259,3.5,8.3,45,0.00,,CLR,0.00,VWS V14.01,2013-03-22 17:30:00,
2013-03-22 13:35:00,37.3,21.5,30.05,West,271,4.7,10.6,53,0.00,,CLR,0.00,VWS V14.01,2013-03-22 17:35:00,
2013-03-22 13:40:00,37.4,18.2,30.05,SW,214,14.2,14.2,45,0.00,,CLR,0.00,VWS V14.01,2013-03-22 17:40:00,
2013-03-22 13:45:00,37.4,18.2,30.05,West,263,8.3,10.6,45,0.00,,CLR,0.00,VWS V14.01,2013-03-22 17:45:00,
2013-03-22 13:50:00,37.6,18.4,30.05,NW,307,9.4,14.2,45,0.00,,CLR,0.00,VWS V14.01,2013-03-22 17:50:00,
2013-03-22 13:55:00,38.0,20.3,30.05,NW,304,11.8,15.3,48,0.00,,CLR,0.00,VWS V14.01,2013-03-22 17:55:00,
2013-03-22 14:00:00,37.7,17.5,30.05,West,277,0.0,4.7,43,0.00,,CLR,0.00,VWS V14.01,2013-03-22 18:00:00,
2013-03-22 14:05:00,38.6,19.9,30.05,NW,310,16.5,16.5,46,0.00,,CLR,0.00,VWS V14.01,2013-03-22 18:05:00,
2013-03-22 14:10:00,38.1,18.9,30.05,West,275,4.7,9.4,45,0.00,,CLR,0.00,VWS V14.01,2013-03-22 18:10:00,
2013-03-22 14:15:00,38.6,20.4,30.04,WNW,299,10.6,13.0,47,0.00,,CLR,0.00,VWS V14.01,2013-03-22 18:15:00,
2013-03-22 14:20:00,38.4,19.7,30.04,West,259,10.6,13.0,46,0.00,,CLR,0.00,VWS V14.01,2013-03-22 18:20:00,
2013-03-22 14:25:00,38.6,20.9,30.04,NW,324,8.3,9.4,48,0.00,,CLR,0.00,VWS V14.01,2013-03-22 18:25:00,
2013-03-22 14:30:00,38.9,19.1,30.04,WNW,286,10.6,14.2,44,0.00,,CLR,0.00,VWS V14.01,2013-03-22 18:30:00,
2013-03-22 14:35:00,38.4,19.2,30.04,WNW,287,8.3,10.6,45,0.00,,CLR,0.00,VWS V14.01,2013-03-22 18:35:00,
2013-03-22 14:40:00,38.7,18.9,30.03,WSW,251,5.9,16.5,44,0.00,,CLR,0.00,VWS V14.01,2013-03-22 18:40:00,
2013-03-22 14:45:00,39.2,20.4,30.04,NW,317,9.4,10.6,46,0.00,,CLR,0.00,VWS V14.01,2013-03-22 18:45:00,
2013-03-22 14:50:00,38.7,18.4,30.04,West,278,8.3,15.3,43,0.00,,CLR,0.00,VWS V14.01,2013-03-22 18:50:00,
2013-03-22 14:55:00,38.9,18.6,30.04,West,271,7.1,11.8,43,0.00,,CLR,0.00,VWS V14.01,2013-03-22 18:55:00,
2013-03-22 15:00:00,39.3,17.8,30.03,WNW,294,8.3,8.3,41,0.00,,CLR,0.00,VWS V14.01,2013-03-22 19:00:00,
2013-03-22 15:05:00,39.6,17.5,30.03,WNW,297,13.0,15.3,40,0.00,,CLR,0.00,VWS V14.01,2013-03-22 19:05:00,
2013-03-22 15:10:00,39.6,19.7,30.03,WNW,292,15.3,15.3,44,0.00,,CLR,0.00,VWS V14.01,2013-03-22 19:10:00,
2013-03-22 15:15:00,39.0,17.5,30.03,WNW,289,8.3,16.5,41,0.00,,CLR,0.00,VWS V14.01,2013-03-22 19:15:00,
2013-03-22 15:20:00,39.2,19.4,30.03,NW,309,7.1,9.4,44,0.00,,CLR,0.00,VWS V14.01,2013-03-22 19:20:00,
2013-03-22 15:25:00,39.3,18.4,30.03,WNW,297,7.1,13.0,42,0.00,,CLR,0.00,VWS V14.01,2013-03-22 19:25:00,
2013-03-22 15:30:00,39.6,18.1,30.02,NW,318,10.6,13.0,41,0.00,,CLR,0.00,VWS V14.01,2013-03-22 19:30:00,
2013-03-22 15:35:00,39.9,19.5,30.02,WNW,302,13.0,14.2,43,0.00,,CLR,0.00,VWS V14.01,2013-03-22 19:35:00,
2013-03-22 15:40:00,39.4,20.6,30.02,WNW,296,14.2,15.3,46,0.00,,CLR,0.00,VWS V14.01,2013-03-22 19:40:00,
2013-03-22 15:45:00,39.3,17.8,30.02,WNW,286,10.6,15.3,41,0.00,,CLR,0.00,VWS V14.01,2013-03-22 19:45:00,
2013-03-22 15:50:00,39.3,20.0,30.02,WNW,291,10.6,15.3,45,0.00,,CLR,0.00,VWS V14.01,2013-03-22 19:50:00,
2013-03-22 15:55:00,39.3,20.0,30.02,West,279,17.7,17.7,45,0.00,,CLR,0.00,VWS V14.01,2013-03-22 19:55:00,
2013-03-22 16:00:00,39.9,18.9,30.02,NW,309,7.1,8.3,42,0.00,,CLR,0.00,VWS V14.01,2013-03-22 20:00:00,
2013-03-22 16:06:00,40.0,19.0,30.02,WNW,294,8.3,11.8,42,0.00,,CLR,0.00,VWS V14.01,2013-03-22 20:06:00,
2013-03-22 16:11:00,39.3,18.9,30.02,West,278,3.5,5.9,43,0.00,,CLR,0.00,VWS V14.01,2013-03-22 20:11:00,
2013-03-22 16:16:00,39.2,18.8,30.02,WNW,288,14.2,14.2,43,0.00,,CLR,0.00,VWS V14.01,2013-03-22 20:16:00,
2013-03-22 16:21:00,38.7,19.4,30.02,WNW,303,7.1,7.1,45,0.00,,CLR,0.00,VWS V14.01,2013-03-22 20:21:00,
2013-03-22 16:26:00,38.7,18.4,30.02,NW,312,4.7,10.6,43,0.00,,CLR,0.00,VWS V14.01,2013-03-22 20:26:00,
2013-03-22 16:31:00,39.2,17.1,30.02,WNW,302,4.7,10.6,40,0.00,,CLR,0.00,VWS V14.01,2013-03-22 20:31:00,
2013-03-22 16:36:00,38.9,18.6,30.02,WNW,297,8.3,8.3,43,0.00,,CLR,0.00,VWS V14.01,2013-03-22 20:36:00,
2013-03-22 16:41:00,38.6,19.3,30.02,NW,325,9.4,10.6,45,0.00,,CLR,0.00,VWS V14.01,2013-03-22 20:41:00,
2013-03-22 16:46:00,39.0,19.2,30.02,NW,306,9.4,15.3,44,0.00,,CLR,0.00,VWS V14.01,2013-03-22 20:46:00,
2013-03-22 16:51:00,39.3,20.0,30.02,NW,311,4.7,7.1,45,0.00,,CLR,0.00,VWS V14.01,2013-03-22 20:51:00,
2013-03-22 16:56:00,39.0,18.6,30.02,NW,306,8.3,11.8,43,0.00,,CLR,0.00,VWS V14.01,2013-03-22 20:56:00,
2013-03-22 17:01:00,39.3,19.5,30.02,WNW,290,10.6,13.0,44,0.00,,CLR,0.00,VWS V14.01,2013-03-22 21:01:00,
2013-03-22 17:06:00,39.2,19.9,30.02,WNW,283,7.1,14.2,45,0.00,,CLR,0.00,VWS V14.01,2013-03-22 21:06:00,
2013-03-22 17:11:00,38.7,18.4,30.02,NW,325,10.6,10.6,43,0.00,,CLR,0.00,VWS V14.01,2013-03-22 21:11:00,
2013-03-22 17:17:00,38.6,17.2,30.02,NW,318,7.1,7.1,41,0.00,,CLR,0.00,VWS V14.01,2013-03-22 21:17:00,
2013-03-22 17:22:00,38.9,17.5,30.01,NW,312,10.6,11.8,41,0.00,,CLR,0.00,VWS V14.01,2013-03-22 21:22:00,
2013-03-22 17:27:00,38.7,18.4,30.02,NW,323,9.4,11.8,43,0.00,,CLR,0.00,VWS V14.01,2013-03-22 21:27:00,
2013-03-22 17:32:00,38.3,15.8,30.02,WNW,297,7.1,7.1,39,0.00,,CLR,0.00,VWS V14.01,2013-03-22 21:32:00,
2013-03-22 17:37:00,38.4,16.4,30.02,NW,320,8.3,8.3,40,0.00,,CLR,0.00,VWS V14.01,2013-03-22 21:37:00,
2013-03-22 17:42:00,38.3,16.9,30.02,NW,316,8.3,8.3,41,0.00,,CLR,0.00,VWS V14.01,2013-03-22 21:42:00,
2013-03-22 17:47:00,38.6,18.8,30.02,NW,307,8.3,13.0,44,0.00,,CLR,0.00,VWS V14.01,2013-03-22 21:47:00,
2013-03-22 17:52:00,38.1,13.1,30.02,WNW,294,7.1,9.4,35,0.00,,CLR,0.00,VWS V14.01,2013-03-22 21:52:00,
2013-03-22 17:57:00,38.0,14.9,30.03,WNW,290,8.3,9.4,38,0.00,,CLR,0.00,VWS V14.01,2013-03-22 21:57:00,
2013-03-22 18:02:00,38.0,13.7,30.03,WNW,286,8.3,11.8,36,0.00,,CLR,0.00,VWS V14.01,2013-03-22 22:02:00,
2013-03-22 18:07:00,38.0,13.7,30.03,NNW,334,11.8,11.8,36,0.00,,CLR,0.00,VWS V14.01,2013-03-22 22:07:00,
2013-03-22 18:12:00,38.1,15.0,30.03,NNW,327,9.4,13.0,38,0.00,,CLR,0.00,VWS V14.01,2013-03-22 22:12:00,
2013-03-22 18:17:00,38.0,13.7,30.02,NNW,348,14.2,14.2,36,0.00,,CLR,0.00,VWS V14.01,2013-03-22 22:17:00,
2013-03-22 18:22:00,37.7,14.0,30.02,NW,312,5.9,11.8,37,0.00,,CLR,0.00,VWS V14.01,2013-03-22 22:22:00,
2013-03-22 18:27:00,37.6,15.7,30.03,NW,304,7.1,10.6,40,0.00,,CLR,0.00,VWS V14.01,2013-03-22 22:27:00,
2013-03-22 18:32:00,37.3,14.3,30.03,NW,319,5.9,10.6,38,0.00,,CLR,0.00,VWS V14.01,2013-03-22 22:32:00,
2013-03-22 18:37:00,37.0,12.8,30.03,WNW,298,8.3,11.8,36,0.00,,CLR,0.00,VWS V14.01,2013-03-22 22:37:00,
2013-03-22 18:43:00,36.9,14.5,30.03,NW,319,10.6,10.6,39,0.00,,CLR,0.00,VWS V14.01,2013-03-22 22:43:00,
2013-03-22 18:48:00,36.7,13.1,30.03,NNW,329,7.1,9.4,37,0.00,,CLR,0.00,VWS V14.01,2013-03-22 22:48:00,
2013-03-22 18:53:00,36.4,14.1,30.04,WNW,291,8.3,8.3,39,0.00,,CLR,0.00,VWS V14.01,2013-03-22 22:53:00,
2013-03-22 18:58:00,36.1,14.4,30.04,NW,321,5.9,5.9,40,0.00,,CLR,0.00,VWS V14.01,2013-03-22 22:58:00,
2013-03-22 19:03:00,35.9,14.7,30.04,NW,321,9.4,11.8,41,0.00,,CLR,0.00,VWS V14.01,2013-03-22 23:03:00,
2013-03-22 19:08:00,35.7,14.0,30.04,NW,317,5.9,10.6,40,0.00,,CLR,0.00,VWS V14.01,2013-03-22 23:08:00,
2013-03-22 19:13:00,35.6,14.5,30.04,NNW,329,9.4,11.8,41,0.00,,CLR,0.00,VWS V14.01,2013-03-22 23:13:00,
2013-03-22 19:18:00,35.4,14.3,30.04,WNW,302,5.9,7.1,41,0.00,,CLR,0.00,VWS V14.01,2013-03-22 23:18:00,
2013-03-22 19:23:00,35.3,15.3,30.04,NW,306,3.5,4.7,43,0.00,,CLR,0.00,VWS V14.01,2013-03-22 23:23:00,
2013-03-22 19:28:00,35.0,15.5,30.04,NNW,333,7.1,7.1,44,0.00,,CLR,0.00,VWS V14.01,2013-03-22 23:28:00,
2013-03-22 19:33:00,34.7,15.8,30.04,NNW,340,4.7,5.9,45,0.00,,CLR,0.00,VWS V14.01,2013-03-22 23:33:00,
2013-03-22 19:38:00,34.4,16.0,30.05,NW,319,7.1,8.3,46,0.00,,CLR,0.00,VWS V14.01,2013-03-22 23:38:00,
2013-03-22 19:43:00,33.9,16.0,30.05,North,350,9.4,9.4,47,0.00,,CLR,0.00,VWS V14.01,2013-03-22 23:43:00,
2013-03-22 19:48:00,33.5,16.2,30.05,NNW,331,9.4,9.4,48,0.00,,CLR,0.00,VWS V14.01,2013-03-22 23:48:00,
2013-03-22 19:53:00,33.2,15.9,30.05,NNW,329,4.7,7.1,48,0.00,,CLR,0.00,VWS V14.01,2013-03-22 23:53:00,
2013-03-22 19:58:00,32.9,16.1,30.05,NW,323,5.9,7.1,49,0.00,,CLR,0.00,VWS V14.01,2013-03-22 23:58:00,
2013-03-22 20:03:00,32.6,16.3,30.05,NW,323,5.9,5.9,50,0.00,,CLR,0.00,VWS V14.01,2013-03-23 00:03:00,
2013-03-22 20:08:00,32.3,16.0,30.05,NW,326,4.7,7.1,50,0.00,,CLR,0.00,VWS V14.01,2013-03-23 00:08:00,
2013-03-22 20:13:00,32.0,16.2,30.05,NW,322,4.7,5.9,52,0.00,,CLR,0.00,VWS V14.01,2013-03-23 00:13:00,
2013-03-22 20:18:00,31.7,16.3,30.06,NW,322,3.5,4.7,53,0.00,,CLR,0.00,VWS V14.01,2013-03-23 00:18:00,
2013-03-22 20:23:00,31.6,16.7,30.06,NW,322,3.5,4.7,54,0.00,,CLR,0.00,VWS V14.01,2013-03-23 00:23:00,
2013-03-22 20:28:00,31.3,16.8,30.06,NW,322,2.4,3.5,55,0.00,,CLR,0.00,VWS V14.01,2013-03-23 00:28:00,
2013-03-22 20:33:00,31.0,17.0,30.06,NW,322,2.4,3.5,56,0.00,,CLR,0.00,VWS V14.01,2013-03-23 00:33:00,
2013-03-22 20:38:00,30.8,17.2,30.06,NNW,335,3.5,3.5,57,0.00,,CLR,0.00,VWS V14.01,2013-03-23 00:38:00,
2013-03-22 20:43:00,30.5,16.9,30.06,NNW,334,3.5,4.7,57,0.00,,CLR,0.00,VWS V14.01,2013-03-23 00:43:00,
2013-03-22 20:48:00,30.2,17.0,30.06,NNW,334,2.4,4.7,58,0.00,,CLR,0.00,VWS V14.01,2013-03-23 00:48:00,
2013-03-22 20:53:00,29.9,16.8,30.06,NNW,334,2.4,4.7,58,0.00,,CLR,0.00,VWS V14.01,2013-03-23 00:53:00,
2013-03-22 20:59:00,29.8,17.1,30.06,NNW,334,2.4,3.5,59,0.00,,CLR,0.00,VWS V14.01,2013-03-23 00:59:00,
2013-03-22 21:04:00,29.5,16.8,30.06,NNW,335,2.4,2.4,59,0.00,,CLR,0.00,VWS V14.01,2013-03-23 01:04:00,
2013-03-22 21:09:00,29.4,17.1,30.06,NNW,335,1.2,2.4,60,0.00,,CLR,0.00,VWS V14.01,2013-03-23 01:09:00,
2013-03-22 21:14:00,29.2,16.9,30.06,NNW,335,1.2,2.4,60,0.00,,CLR,0.00,VWS V14.01,2013-03-23 01:14:00,
2013-03-22 21:19:00,29.1,16.8,30.06,NNW,335,1.2,2.4,60,0.00,,CLR,0.00,VWS V14.01,2013-03-23 01:19:00,
2013-03-22 21:24:00,28.9,17.0,30.06,NNW,335,2.4,3.5,61,0.00,,CLR,0.00,VWS V14.01,2013-03-23 01:24:00,
2013-03-22 21:29:00,28.8,17.3,30.05,NNW,335,2.4,2.4,62,0.00,,CLR,0.00,VWS V14.01,2013-03-23 01:29:00,
2013-03-22 21:34:00,28.6,17.5,30.05,NNW,336,1.2,1.2,63,0.00,,CLR,0.00,VWS V14.01,2013-03-23 01:34:00,
2013-03-22 21:39:00,28.5,17.4,30.05,NNW,336,1.2,2.4,63,0.00,,CLR,0.00,VWS V14.01,2013-03-23 01:39:00,
2013-03-22 21:44:00,28.3,17.6,30.05,NNW,336,0.0,1.2,64,0.00,,CLR,0.00,VWS V14.01,2013-03-23 01:44:00,
2013-03-22 21:49:00,28.2,17.5,30.05,NNW,336,0.0,1.2,64,0.00,,CLR,0.00,VWS V14.01,2013-03-23 01:49:00,